createdAt,value
2016-08-14T10:41:39.130Z,65.82
2016-08-14T10:42:38.847Z,64.95
2016-08-14T10:43:39.753Z,63.98
2016-08-14T10:44:39.202Z,64.37
2016-08-14T10:45:39.600Z,63.79
2016-08-14T10:46:39.418Z,64.66
2016-08-14T10:47:39.053Z,63.14
2016-08-14T10:48:39.540Z,62.85
2016-08-14T10:49:38.924Z,62.27
2016-08-14T10:50:38.856Z,63.04
2016-08-14T10:51:38.840Z,62.66
2016-08-14T10:52:38.914Z,62.56
2016-08-14T10:53:38.872Z,63.14
2016-08-14T10:54:39.005Z,64.11
2016-08-14T10:55:38.892Z,64.89
2016-08-14T10:56:38.886Z,64.79
2016-08-14T10:57:38.846Z,64.89
2016-08-14T10:58:39.672Z,64.3
2016-08-14T10:59:38.887Z,62.95
2016-08-14T11:00:38.886Z,62.75
2016-08-14T11:01:39.013Z,62.79
2016-08-14T11:02:39.632Z,60.33
2016-08-14T11:03:38.858Z,61.52
2016-08-14T11:04:38.941Z,60.94
2016-08-14T11:05:38.873Z,60.94
2016-08-14T11:06:39.786Z,59.75
2016-08-14T11:07:39.819Z,60.43
2016-08-14T11:08:38.892Z,60.46
2016-08-14T11:09:38.969Z,60.82
2016-08-14T11:10:38.897Z,60.94
2016-08-14T11:11:39.392Z,60.91
2016-08-14T11:12:39.430Z,62.59
2016-08-14T11:13:38.882Z,63.82
2016-08-14T11:14:39.694Z,63.62
2016-08-14T11:15:38.946Z,63.62
2016-08-14T11:16:38.873Z,63.43
2016-08-14T11:17:39.802Z,62.75
2016-08-14T11:18:39.067Z,61.4
2016-08-14T11:19:38.961Z,60.72
2016-08-14T11:20:38.986Z,61.21
2016-08-14T11:21:38.896Z,59.94
2016-08-14T11:22:39.498Z,60.65
2016-08-14T11:23:38.916Z,60.43
2016-08-14T11:24:38.901Z,60.07
2016-08-14T11:25:38.895Z,58.62
2016-08-14T11:26:39.031Z,58.33
2016-08-14T11:27:38.972Z,59.03
2016-08-14T11:28:39.339Z,60.85
2016-08-14T11:29:38.917Z,60.46
2016-08-14T11:30:39.215Z,59.3
2016-08-14T11:31:38.916Z,59.49
2016-08-14T11:32:38.887Z,59.88
2016-08-14T11:33:38.976Z,58.04
2016-08-14T11:34:38.954Z,57.45
2016-08-14T11:35:38.962Z,56.77
2016-08-14T11:36:38.921Z,57.55
2016-08-14T11:37:38.900Z,57.17
2016-08-14T11:38:39.174Z,57.17
2016-08-14T11:39:38.933Z,58.42
2016-08-14T11:40:38.970Z,59.13
2016-08-14T11:41:38.933Z,59.91
2016-08-14T11:42:38.901Z,59.52
2016-08-14T11:43:38.900Z,60.68
2016-08-14T11:44:38.906Z,59.81
2016-08-14T11:45:38.903Z,59.03
2016-08-14T11:46:38.943Z,57.87
2016-08-14T11:47:39.024Z,57.51
2016-08-14T11:48:38.935Z,55.77
2016-08-14T11:49:38.955Z,55.67
2016-08-14T11:50:38.962Z,57.12
2016-08-14T11:51:38.958Z,57.42
2016-08-14T11:52:38.969Z,56.35
2016-08-14T11:53:39.048Z,57.03
2016-08-14T11:54:38.915Z,57.32
2016-08-14T11:55:38.906Z,58.31
2016-08-14T11:56:38.964Z,56.28
2016-08-14T11:57:38.991Z,55.6
2016-08-14T11:58:39.047Z,55.21
2016-08-14T11:59:38.937Z,55.5
2016-08-14T12:00:39.007Z,55.41
2016-08-14T12:01:38.977Z,54.63
2016-08-14T12:02:39.722Z,53.75
2016-08-14T12:03:38.957Z,55.11
2016-08-14T12:04:38.939Z,56.09
2016-08-14T12:05:38.944Z,55.79
2016-08-14T12:06:39.129Z,55.99
2016-08-14T12:07:39.000Z,55.69
2016-08-14T12:08:39.374Z,55.02
2016-08-14T12:09:38.971Z,55.5
2016-08-14T12:10:39.127Z,55.5
2016-08-14T12:11:39.065Z,55.5
2016-08-14T12:12:38.934Z,54.05
2016-08-14T12:13:38.941Z,54.92
2016-08-14T12:14:39.003Z,54.24
2016-08-14T12:15:39.054Z,55.11
2016-08-14T12:16:38.984Z,55.5
2016-08-14T12:17:38.935Z,57.25
2016-08-14T12:18:39.471Z,58.61
2016-08-14T12:19:39.714Z,57.15
2016-08-14T12:20:38.985Z,56.18
2016-08-14T12:21:39.502Z,57.73
2016-08-14T12:22:39.004Z,57.25
2016-08-14T12:23:38.950Z,56.96
2016-08-14T12:24:38.988Z,56.37
2016-08-14T12:25:39.112Z,54.66
2016-08-14T12:26:39.039Z,54.66
2016-08-14T12:27:39.026Z,54.56
2016-08-14T12:28:46.899Z,54.85
2016-08-14T12:30:00.616Z,55.24
2016-08-14T12:30:39.026Z,53.97
2016-08-14T12:32:02.975Z,54.39
2016-08-14T12:33:08.690Z,54.07
2016-08-14T12:34:24.237Z,55.63
2016-08-14T12:35:26.927Z,55.92
2016-08-14T12:36:38.285Z,55.82
2016-08-14T12:37:31.785Z,55.33
2016-08-14T12:38:36.327Z,55.92
2016-08-14T12:39:37.693Z,55.24
2016-08-14T12:40:16.590Z,56.11
2016-08-14T12:41:43.700Z,55.63
2016-08-14T12:43:08.124Z,55.82
2016-08-14T12:44:33.222Z,54.46
2016-08-14T12:45:58.778Z,54.82
2016-08-14T12:47:24.871Z,55.41
2016-08-14T12:48:49.302Z,56.83
2016-08-14T12:50:08.131Z,56.93
2016-08-14T12:51:30.052Z,56.51
2016-08-14T12:52:52.202Z,56.71
2016-08-14T12:54:18.706Z,58.23
2016-08-14T12:55:27.779Z,57.36
2016-08-14T12:56:38.828Z,57.17
2016-08-14T12:57:53.537Z,59.27
2016-08-14T12:58:52.877Z,59.56
2016-08-14T13:00:01.761Z,58.2
2016-08-14T13:00:51.911Z,58.85
2016-08-14T13:01:46.291Z,59.14
2016-08-14T13:02:45.748Z,60.11
2016-08-14T13:03:45.702Z,59.14
2016-08-14T13:04:45.711Z,59.14
2016-08-14T13:05:45.704Z,58.95
2016-08-14T13:06:45.748Z,59.72
2016-08-14T13:07:45.723Z,62.43
2016-08-14T13:08:45.735Z,61.66
2016-08-14T13:09:46.842Z,60.4
2016-08-14T13:10:46.467Z,61.46
2016-08-14T13:11:45.779Z,61.27
2016-08-14T13:12:46.421Z,59.82
2016-08-14T13:13:45.776Z,58.65
2016-08-14T13:14:45.748Z,58.17
2016-08-14T13:15:45.754Z,58.11
2016-08-14T13:16:45.724Z,59.46
2016-08-14T13:17:45.909Z,59.75
2016-08-14T13:18:45.724Z,60.43
2016-08-14T13:19:45.747Z,61.4
2016-08-14T13:20:45.767Z,61.36
2016-08-14T13:21:45.750Z,61.18
2016-08-14T13:22:45.782Z,61.85
2016-08-14T13:23:45.727Z,61.27
2016-08-14T13:24:45.816Z,60.78
2016-08-14T13:25:45.779Z,61.18
2016-08-14T13:26:45.830Z,61.36
2016-08-14T13:27:45.733Z,60.5
2016-08-14T13:28:46.721Z,59.23
2016-08-14T13:29:45.742Z,60.01
2016-08-14T13:30:45.725Z,59.43
2016-08-14T13:31:45.735Z,59.23
2016-08-14T13:32:45.788Z,60.21
2016-08-14T13:33:45.734Z,60.5
2016-08-14T13:34:45.746Z,61.18
2016-08-14T13:35:45.747Z,60.69
2016-08-14T13:36:45.762Z,61.36
2016-08-14T13:37:45.739Z,60.5
2016-08-14T13:38:45.773Z,61.01
2016-08-14T13:39:45.768Z,61.4
2016-08-14T13:40:45.801Z,59.84
2016-08-14T13:41:45.747Z,60.14
2016-08-14T13:42:45.920Z,61.11
2016-08-14T13:43:45.739Z,61.3
2016-08-14T13:44:45.752Z,59.75
2016-08-14T13:45:45.749Z,60.52
2016-08-14T13:46:45.894Z,61.11
2016-08-14T13:47:45.754Z,59.75
2016-08-14T13:48:45.763Z,59.91
2016-08-14T13:49:45.830Z,59.72
2016-08-14T13:50:45.775Z,57.98
2016-08-14T13:51:45.767Z,58.95
2016-08-14T13:52:45.793Z,60.11
2016-08-14T13:53:45.776Z,58.75
2016-08-14T13:54:45.883Z,58.37
2016-08-14T13:55:45.898Z,58.17
2016-08-14T13:56:45.776Z,57.5
2016-08-14T13:57:45.767Z,57.59
2016-08-14T13:58:45.768Z,58.37
2016-08-14T13:59:45.766Z,58.75
2016-08-14T14:00:45.773Z,59.23
2016-08-14T14:01:45.766Z,61.18
2016-08-14T14:02:45.774Z,60.59
2016-08-14T14:03:45.823Z,61.66
2016-08-14T14:04:45.841Z,60.01
2016-08-14T14:05:45.778Z,61.46
2016-08-14T14:06:45.830Z,61.36
2016-08-14T14:07:45.771Z,59.43
2016-08-14T14:08:45.798Z,59.82
2016-08-14T14:09:45.846Z,62.72
2016-08-14T14:10:45.782Z,59.82
2016-08-14T14:11:45.803Z,59.79
2016-08-14T14:12:45.783Z,60.17
2016-08-14T14:13:45.843Z,59.59
2016-08-14T14:14:45.820Z,61.05
2016-08-14T14:15:46.137Z,58.82
2016-08-14T14:16:45.814Z,60.27
2016-08-14T14:17:45.851Z,61.24
2016-08-14T14:18:45.867Z,60.37
2016-08-14T14:19:45.903Z,62.14
2016-08-14T14:20:45.911Z,61.63
2016-08-14T14:21:45.918Z,60.3
2016-08-14T14:22:45.922Z,60.88
2016-08-14T14:23:45.823Z,60.4
2016-08-14T14:24:45.821Z,60.98
2016-08-14T14:25:45.791Z,60.5
2016-08-14T14:26:45.800Z,61.27
2016-08-14T14:27:45.805Z,61.21
2016-08-14T14:28:45.798Z,61.46
2016-08-14T14:29:45.813Z,61.21
2016-08-14T14:30:45.833Z,61.59
2016-08-14T14:31:45.902Z,61.4
2016-08-14T14:32:45.937Z,60.33
2016-08-14T14:33:45.879Z,60.52
2016-08-14T14:34:45.786Z,60.91
2016-08-14T14:35:45.794Z,60.52
2016-08-14T14:36:45.806Z,60.91
2016-08-14T14:37:45.909Z,60.72
2016-08-14T14:38:45.806Z,60.82
2016-08-14T14:39:45.835Z,59.07
2016-08-14T14:40:45.815Z,58.3
2016-08-14T14:41:45.823Z,58.11
2016-08-14T14:42:45.811Z,60.43
2016-08-14T14:43:45.833Z,61.79
2016-08-14T14:44:45.837Z,61.11
2016-08-14T14:45:45.945Z,59.27
2016-08-14T14:46:45.814Z,59.27
2016-08-14T14:47:45.885Z,58.3
2016-08-14T14:48:45.927Z,58.69
2016-08-14T14:49:45.910Z,57.53
2016-08-14T14:50:45.873Z,57.71
2016-08-14T14:51:45.836Z,57.43
2016-08-14T14:52:45.839Z,57.53
2016-08-14T14:53:45.828Z,56.36
2016-08-14T14:54:45.816Z,55.88
2016-08-14T14:55:45.819Z,56.07
2016-08-14T14:56:45.827Z,57.53
2016-08-14T14:57:45.831Z,57.43
2016-08-14T14:58:45.851Z,57.59
2016-08-14T14:59:45.850Z,57.69
2016-08-14T15:00:45.851Z,58.95
2016-08-14T15:01:45.830Z,59.72
2016-08-14T15:02:45.851Z,60.59
2016-08-14T15:03:45.862Z,60.47
2016-08-14T15:04:45.874Z,59.4
2016-08-14T15:05:45.859Z,60.95
2016-08-14T15:06:45.885Z,61.33
2016-08-14T15:07:45.846Z,62.59
2016-08-14T15:08:45.833Z,64.04
2016-08-14T15:09:45.905Z,62.21
2016-08-14T15:10:45.849Z,62.27
2016-08-14T15:11:45.841Z,63.14
2016-08-14T15:12:45.880Z,62.66
2016-08-14T15:13:45.877Z,61.69
2016-08-14T15:14:45.836Z,63.14
2016-08-14T15:15:45.849Z,62.44
2016-08-14T15:16:45.864Z,61.57
2016-08-14T15:17:45.857Z,62.08
2016-08-14T15:18:45.839Z,61.76
2016-08-14T15:19:45.883Z,60.82
2016-08-14T15:20:45.880Z,61.11
2016-08-14T15:21:45.845Z,60.63
2016-08-14T15:22:45.860Z,59.38
2016-08-14T15:23:45.895Z,59.08
2016-08-14T15:24:45.922Z,58.92
2016-08-14T15:25:45.966Z,58.82
2016-08-14T15:26:45.907Z,59.69
2016-08-14T15:27:46.731Z,60.69
2016-08-14T15:28:46.549Z,60.88
2016-08-14T15:29:45.872Z,59.82
2016-08-14T15:30:45.918Z,60.3
2016-08-14T15:31:45.877Z,60.43
2016-08-14T15:32:45.876Z,60.14
2016-08-14T15:33:45.919Z,59.75
2016-08-14T15:34:46.222Z,60.33
2016-08-14T15:35:45.966Z,60.24
2016-08-14T15:36:45.881Z,58.88
2016-08-14T15:37:45.878Z,58.01
2016-08-14T15:38:46.225Z,57.55
2016-08-14T15:39:45.861Z,57.36
2016-08-14T15:40:45.866Z,57.75
2016-08-14T15:41:45.871Z,58.74
2016-08-14T15:42:45.864Z,58.26
2016-08-14T15:43:45.885Z,57.36
2016-08-14T15:44:45.905Z,56.1
2016-08-14T15:45:45.907Z,57.94
2016-08-14T15:46:45.949Z,58.88
2016-08-14T15:47:45.968Z,60.14
2016-08-14T15:48:45.938Z,60.43
2016-08-14T15:49:45.966Z,60.43
2016-08-14T15:50:45.913Z,59.46
2016-08-14T15:51:45.923Z,60.62
2016-08-14T15:52:45.941Z,60.43
2016-08-14T15:53:45.900Z,61.79
2016-08-14T15:54:45.940Z,61.88
2016-08-14T15:55:45.907Z,61.79
2016-08-14T15:56:45.920Z,62.04
2016-08-14T15:57:45.925Z,61.56
2016-08-14T15:58:45.890Z,61.95
2016-08-14T15:59:45.937Z,60.88
2016-08-14T16:00:45.899Z,61.63
2016-08-14T16:01:45.912Z,61.76
2016-08-14T16:02:45.926Z,61.76
2016-08-14T16:03:45.908Z,62.72
2016-08-14T16:04:45.909Z,63.49
2016-08-14T16:05:45.949Z,63.59
2016-08-14T16:06:45.924Z,63.11
2016-08-14T16:07:45.909Z,62.43
2016-08-14T16:08:45.889Z,61.85
2016-08-14T16:09:45.915Z,62.24
2016-08-14T16:10:45.908Z,63.79
2016-08-14T16:11:45.920Z,63.89
2016-08-14T16:12:45.911Z,63.59
2016-08-14T16:13:45.910Z,62.63
2016-08-14T16:14:45.938Z,62.24
2016-08-14T16:15:45.908Z,62.34
2016-08-14T16:16:45.925Z,63.01
2016-08-14T16:17:45.898Z,61.82
2016-08-14T16:18:45.920Z,61.53
2016-08-14T16:19:45.941Z,62.3
2016-08-14T16:20:45.964Z,61.92
2016-08-14T16:21:45.927Z,62.4
2016-08-14T16:22:45.913Z,63.27
2016-08-14T16:23:45.940Z,62.79
2016-08-14T16:24:45.924Z,63.82
2016-08-14T16:25:45.919Z,63.05
2016-08-14T16:26:45.947Z,62.76
2016-08-14T16:27:45.943Z,63.82
2016-08-14T16:28:45.907Z,64.11
2016-08-14T16:29:45.923Z,64.56
2016-08-14T16:30:45.925Z,64.66
2016-08-14T16:31:45.928Z,64.95
2016-08-14T16:32:45.906Z,66.01
2016-08-14T16:33:45.969Z,65.24
2016-08-14T16:34:45.924Z,66.46
2016-08-14T16:35:45.942Z,66.2
2016-08-14T16:36:45.916Z,65.62
2016-08-14T16:37:45.923Z,65.5
2016-08-14T16:38:45.976Z,65.4
2016-08-14T16:39:45.940Z,64.72
2016-08-14T16:40:45.942Z,64.82
2016-08-14T16:41:45.961Z,65.53
2016-08-14T16:42:46.644Z,65.24
2016-08-14T16:43:45.927Z,65.11
2016-08-14T16:44:46.642Z,65.98
2016-08-14T16:45:45.939Z,66.11
2016-08-14T16:46:45.932Z,65.43
2016-08-14T16:47:45.949Z,64.95
2016-08-14T16:48:45.956Z,64.95
2016-08-14T16:49:46.729Z,64.92
2016-08-14T16:50:45.934Z,65.3
2016-08-14T16:51:46.380Z,64.95
2016-08-14T16:52:45.949Z,64.66
2016-08-14T16:53:45.987Z,65.2
2016-08-14T16:54:45.994Z,65.24
2016-08-14T16:55:45.941Z,66.11
2016-08-14T16:56:45.992Z,66.59
2016-08-14T16:57:46.434Z,66.01
2016-08-14T16:58:46.403Z,66.5
2016-08-14T16:59:45.945Z,66.17
2016-08-14T17:00:46.184Z,67.14
2016-08-14T17:01:46.307Z,67.24
2016-08-14T17:02:45.941Z,67.14
2016-08-14T17:03:45.953Z,67.62
2016-08-14T17:04:45.943Z,67.52
2016-08-14T17:05:46.534Z,67.52
2016-08-14T17:06:46.005Z,67.78
2016-08-14T17:07:45.962Z,67.91
2016-08-14T17:08:45.957Z,67.69
2016-08-14T17:09:45.953Z,67.78
2016-08-14T17:10:45.957Z,67.97
2016-08-14T17:11:45.947Z,68.84
2016-08-14T17:12:45.956Z,69.49
2016-08-14T17:13:45.972Z,68.81
2016-08-14T17:14:45.981Z,69.39
2016-08-14T17:15:45.988Z,70.16
2016-08-14T17:16:46.465Z,70.16
2016-08-14T17:17:45.972Z,70.16
2016-08-14T17:18:45.966Z,70.64
2016-08-14T17:19:46.818Z,70.32
2016-08-14T17:20:46.009Z,70.54
2016-08-14T17:21:46.008Z,71.38
2016-08-14T17:22:46.561Z,71.09
2016-08-14T17:23:46.000Z,71.48
2016-08-14T17:24:45.994Z,70.96
2016-08-14T17:25:46.003Z,71.34
2016-08-14T17:26:45.976Z,71.73
2016-08-14T17:27:46.656Z,71.73
2016-08-14T17:28:45.977Z,71.92
2016-08-14T17:29:45.973Z,72.5
2016-08-14T17:30:46.020Z,72.69
2016-08-14T17:31:45.970Z,73.08
2016-08-14T17:32:45.990Z,73.27
2016-08-14T17:33:45.967Z,72.5
2016-08-14T17:34:47.761Z,72.89
2016-08-14T17:35:46.333Z,73.05
2016-08-14T17:36:46.701Z,72.85
2016-08-14T17:37:46.035Z,73.33
2016-08-14T17:38:45.986Z,72.85
2016-08-14T17:39:45.989Z,73.43
2016-08-14T17:40:45.993Z,73.72
2016-08-14T17:41:46.651Z,73.14
2016-08-14T17:42:46.128Z,73.43
2016-08-14T17:43:46.007Z,74.2
2016-08-14T17:44:46.034Z,74.01
2016-08-14T17:45:46.023Z,74.93
2016-08-14T17:46:45.994Z,74.07
2016-08-14T17:47:46.022Z,75.51
2016-08-14T17:48:46.016Z,75.51
2016-08-14T17:49:45.994Z,75.42
2016-08-14T17:50:46.011Z,75.03
2016-08-14T17:51:46.092Z,75.03
2016-08-14T17:52:46.004Z,75.13
2016-08-14T17:53:45.997Z,75.61
2016-08-14T17:54:46.015Z,76.28
2016-08-14T17:55:45.996Z,76.44
2016-08-14T17:56:46.001Z,76.09
2016-08-14T17:57:46.034Z,76.25
2016-08-14T17:58:46.123Z,76.82
2016-08-14T17:59:46.284Z,77.01
2016-08-14T18:00:46.450Z,78.17
2016-08-14T18:01:46.059Z,78.17
2016-08-14T18:02:46.022Z,78.36
2016-08-14T18:03:46.020Z,78.65
2016-08-14T18:04:46.014Z,79.13
2016-08-14T18:05:46.688Z,79.61
2016-08-14T18:06:46.010Z,79.81
2016-08-14T18:07:47.510Z,80.38
2016-08-14T18:08:46.027Z,80.87
2016-08-14T18:09:46.036Z,80.25
2016-08-14T18:10:46.070Z,81.12
2016-08-14T18:11:46.025Z,81.88
2016-08-14T18:12:46.022Z,81.98
2016-08-14T18:13:46.035Z,82.37
2016-08-14T18:14:46.069Z,82.75
2016-08-14T18:15:46.022Z,82.56
2016-08-14T18:16:46.020Z,82.65
2016-08-14T18:17:46.050Z,83.33
2016-08-14T18:18:46.032Z,83.14
2016-08-14T18:19:46.035Z,83.42
2016-08-14T18:20:46.006Z,83.96
2016-08-14T18:21:46.020Z,83.72
2016-08-14T18:22:46.034Z,83.58
2016-08-14T18:23:46.062Z,83.86
2016-08-14T18:24:46.083Z,84.54
2016-08-14T18:25:46.073Z,84.92
2016-08-14T18:26:46.117Z,84.83
2016-08-14T18:27:46.087Z,84.92
2016-08-14T18:28:46.088Z,85.31
2016-08-14T18:29:46.101Z,85.88
2016-08-14T18:30:46.024Z,86.18
2016-08-14T18:31:46.027Z,86.52
2016-08-14T18:32:46.037Z,86.56
2016-08-14T18:33:46.092Z,86.85
2016-08-14T18:34:46.050Z,86.65
2016-08-14T18:35:46.074Z,86.99
2016-08-14T18:36:46.051Z,87.09
2016-08-14T18:37:46.040Z,87.86
2016-08-14T18:38:46.067Z,88.06
2016-08-14T18:39:46.059Z,87.76
2016-08-14T18:40:46.038Z,88.15
2016-08-14T18:41:46.058Z,88.63
2016-08-14T18:42:46.064Z,88.92
2016-08-14T18:43:46.048Z,89.11
2016-08-14T18:44:46.071Z,89.64
2016-08-14T18:45:46.064Z,89.5
2016-08-14T18:46:46.055Z,89.59
2016-08-14T18:47:46.048Z,89.54
2016-08-14T18:48:46.052Z,90.12
2016-08-14T18:49:46.067Z,89.93
2016-08-14T18:50:46.074Z,90.51
2016-08-14T18:51:46.051Z,90.8
2016-08-14T18:52:46.073Z,90.89
2016-08-14T18:53:46.064Z,91.28
2016-08-14T18:54:46.085Z,91.66
2016-08-14T18:55:46.084Z,91.66
2016-08-14T18:56:46.073Z,92.05
2016-08-14T18:57:46.122Z,92.14
2016-08-14T18:58:46.086Z,92.24
2016-08-14T18:59:46.112Z,92.86
2016-08-14T19:00:46.091Z,93.05
2016-08-14T19:01:46.121Z,93.44
2016-08-14T19:02:46.569Z,93.87
2016-08-14T19:03:46.069Z,94.21
2016-08-14T19:04:46.097Z,94.31
2016-08-14T19:06:46.075Z,94.31
2016-08-14T19:07:46.083Z,94.31
2016-08-14T19:08:46.086Z,95.26
2016-08-14T19:09:46.158Z,95.55
2016-08-14T19:10:46.130Z,95.65
2016-08-14T19:11:46.130Z,95.45
2016-08-14T19:12:46.113Z,96.42
2016-08-14T19:13:46.094Z,96.8
2016-08-14T19:14:46.097Z,96.7
2016-08-14T19:15:46.078Z,97.47
2016-08-14T19:16:46.098Z,96.85
2016-08-14T19:17:46.091Z,97.91
2016-08-14T19:18:46.086Z,97.81
2016-08-14T19:19:46.136Z,98.48
2016-08-14T19:20:46.173Z,97.91
2016-08-14T19:21:46.133Z,98.29
2016-08-14T19:22:46.139Z,98.38
2016-08-14T19:23:46.104Z,98.29
2016-08-14T19:24:46.095Z,98.58
2016-08-14T19:25:46.128Z,99.15
2016-08-14T19:26:46.115Z,99.99
2016-08-14T19:27:47.121Z,99.68
2016-08-14T19:28:46.129Z,99.99
2016-08-14T19:29:46.102Z,99.99
2016-08-14T19:30:46.111Z,99.99
2016-08-14T19:31:46.102Z,99.99
2016-08-14T19:32:46.119Z,99.99
2016-08-14T19:33:46.174Z,99.99
2016-08-14T19:34:46.114Z,99.99
2016-08-14T19:35:46.128Z,99.99
2016-08-14T19:36:46.454Z,99.99
2016-08-14T19:37:46.124Z,99.99
2016-08-14T19:38:46.102Z,99.99
2016-08-14T19:39:46.137Z,99.99
2016-08-14T19:40:46.141Z,99.99
2016-08-14T19:41:46.088Z,99.99
2016-08-14T19:42:46.135Z,99.99
2016-08-14T19:43:46.102Z,99.99
2016-08-14T19:44:46.106Z,99.99
2016-08-14T19:45:46.130Z,99.99
2016-08-14T19:46:46.126Z,99.99
2016-08-14T19:47:46.128Z,99.99
2016-08-14T19:48:46.149Z,99.99
2016-08-14T19:49:46.159Z,99.99
2016-08-14T19:50:46.149Z,99.99
2016-08-14T19:51:46.179Z,99.99
2016-08-14T19:52:46.214Z,99.99
2016-08-14T19:53:46.193Z,99.99
2016-08-14T19:54:46.160Z,99.99
2016-08-14T19:55:46.179Z,99.99
2016-08-14T19:56:46.131Z,99.99
2016-08-14T19:57:46.133Z,99.99
2016-08-14T19:58:46.131Z,99.99
2016-08-14T19:59:46.150Z,99.99
2016-08-14T20:00:46.177Z,99.99
2016-08-14T20:01:46.136Z,99.99
2016-08-14T20:02:46.163Z,99.99
2016-08-14T20:03:46.193Z,99.99
2016-08-14T20:04:46.230Z,99.99
2016-08-14T20:05:46.199Z,99.99
2016-08-14T20:06:46.228Z,99.99
2016-08-14T20:07:46.180Z,99.99
2016-08-14T20:08:46.176Z,99.99
2016-08-14T20:09:46.166Z,99.99
2016-08-14T20:10:46.162Z,99.99
2016-08-14T20:11:46.192Z,99.99
2016-08-14T20:12:46.147Z,99.99
2016-08-14T20:13:46.198Z,99.99
2016-08-14T20:14:46.155Z,99.99
2016-08-14T20:15:46.163Z,99.99
2016-08-14T20:16:46.248Z,99.99
2016-08-14T20:17:46.134Z,99.99
2016-08-14T20:18:46.166Z,99.99
2016-08-14T20:19:46.180Z,99.99
2016-08-14T20:20:46.177Z,99.99
2016-08-14T20:21:46.171Z,99.99
2016-08-14T20:22:46.170Z,99.99
2016-08-14T20:23:46.183Z,99.99
2016-08-14T20:24:46.173Z,99.99
2016-08-14T20:25:46.150Z,99.99
2016-08-14T20:26:46.165Z,99.99
2016-08-14T20:27:46.184Z,99.99
2016-08-14T20:28:46.184Z,99.99
2016-08-14T20:29:46.199Z,99.99
2016-08-14T20:30:46.250Z,99.99
2016-08-14T20:31:46.195Z,99.99
2016-08-14T20:32:46.208Z,99.99
2016-08-14T20:33:46.197Z,99.99
2016-08-14T20:34:46.192Z,99.99
2016-08-14T20:35:46.193Z,99.99
2016-08-14T20:36:46.195Z,99.99
2016-08-14T20:37:46.245Z,99.99
2016-08-14T20:38:46.177Z,99.99
2016-08-14T20:39:46.168Z,99.99
2016-08-14T20:40:46.148Z,99.99
2016-08-14T20:41:47.179Z,99.99
2016-08-14T20:42:46.162Z,99.99
2016-08-14T20:43:46.152Z,99.99
2016-08-14T20:44:46.187Z,99.99
2016-08-14T20:45:46.150Z,99.99
2016-08-14T20:46:46.168Z,99.99
2016-08-14T20:47:46.180Z,99.99
2016-08-14T20:48:46.168Z,99.99
2016-08-14T20:49:46.164Z,99.99
2016-08-14T20:50:46.160Z,99.99
2016-08-14T20:51:46.207Z,99.99
2016-08-14T20:52:46.198Z,99.99
2016-08-14T20:53:46.178Z,99.99
2016-08-14T20:54:46.184Z,99.99
2016-08-14T20:55:46.164Z,99.99
2016-08-14T20:56:46.344Z,99.99
2016-08-14T20:57:46.179Z,99.99
2016-08-14T20:58:46.208Z,99.99
2016-08-14T20:59:46.180Z,99.99
2016-08-14T21:00:46.200Z,99.99
2016-08-14T21:01:46.185Z,99.99
2016-08-14T21:02:46.211Z,99.99
2016-08-14T21:03:46.184Z,99.99
2016-08-14T21:04:46.225Z,99.99
2016-08-14T21:05:46.202Z,99.99
2016-08-14T21:06:46.218Z,99.99
2016-08-14T21:07:46.193Z,99.99
2016-08-14T21:08:46.206Z,99.99
2016-08-14T21:09:46.310Z,99.99
2016-08-14T21:10:46.229Z,99.99
2016-08-14T21:11:46.211Z,99.99
2016-08-14T21:12:46.204Z,99.99
2016-08-14T21:13:46.193Z,99.99
2016-08-14T21:14:46.283Z,99.99
2016-08-14T21:15:46.272Z,99.99
2016-08-14T21:16:46.258Z,99.99
2016-08-14T21:17:46.233Z,99.99
2016-08-14T21:18:46.228Z,99.99
2016-08-14T21:19:46.236Z,99.99
2016-08-14T21:20:46.201Z,99.99
2016-08-14T21:21:46.230Z,99.99
2016-08-14T21:22:46.218Z,99.99
2016-08-14T21:23:46.257Z,99.99
2016-08-14T21:24:46.212Z,99.99
2016-08-14T21:25:46.216Z,99.99
2016-08-14T21:26:46.187Z,99.99
2016-08-14T21:27:46.209Z,99.99
2016-08-14T21:28:46.224Z,99.99
2016-08-14T21:29:46.208Z,99.99
2016-08-14T21:30:46.325Z,99.99
2016-08-14T21:31:46.217Z,99.99
2016-08-14T21:32:46.316Z,99.99
2016-08-14T21:33:46.210Z,99.99
2016-08-14T21:34:46.230Z,99.99
2016-08-14T21:35:46.231Z,99.99
2016-08-14T21:36:46.225Z,99.99
2016-08-14T21:37:46.232Z,99.99
2016-08-14T21:38:46.277Z,99.99
2016-08-14T21:39:46.234Z,99.99
2016-08-14T21:40:46.241Z,99.99
2016-08-14T21:41:46.276Z,99.99
2016-08-14T21:42:46.240Z,99.99
2016-08-14T21:43:46.246Z,99.99
2016-08-14T21:44:46.282Z,99.99
2016-08-14T21:45:46.259Z,99.99
2016-08-14T21:46:46.266Z,99.99
2016-08-14T21:47:46.476Z,99.99
2016-08-14T21:48:46.261Z,99.99
2016-08-14T21:49:46.244Z,99.99
2016-08-14T21:50:46.245Z,99.99
2016-08-14T21:51:46.245Z,99.99
2016-08-14T21:52:46.246Z,99.99
2016-08-14T21:53:46.245Z,99.99
2016-08-14T21:54:46.248Z,99.99
2016-08-14T21:55:46.227Z,99.99
2016-08-14T21:56:46.235Z,99.99
2016-08-14T21:57:46.268Z,99.99
2016-08-14T21:58:46.247Z,99.99
2016-08-14T21:59:46.364Z,99.99
2016-08-14T22:00:46.259Z,99.99
2016-08-14T22:01:46.281Z,99.99
2016-08-14T22:02:46.249Z,99.99
2016-08-14T22:03:46.262Z,99.99
2016-08-14T22:04:46.262Z,99.99
2016-08-14T22:05:46.239Z,99.99
2016-08-14T22:06:46.263Z,99.99
2016-08-14T22:07:46.253Z,99.99
2016-08-14T22:08:46.244Z,99.99
2016-08-14T22:09:46.239Z,99.99
2016-08-14T22:10:46.238Z,99.99
2016-08-14T22:11:46.258Z,99.99
2016-08-14T22:12:46.247Z,99.99
2016-08-14T22:13:46.244Z,99.99
2016-08-14T22:14:46.259Z,99.99
2016-08-14T22:15:46.258Z,99.99
2016-08-14T22:16:46.276Z,99.99
2016-08-14T22:17:46.242Z,99.99
2016-08-14T22:18:46.259Z,99.99
2016-08-14T22:19:46.274Z,99.99
2016-08-14T22:20:46.304Z,99.99
2016-08-14T22:21:46.276Z,99.99
2016-08-14T22:22:46.266Z,99.99
2016-08-14T22:23:46.258Z,99.99
2016-08-14T22:24:46.262Z,99.99
2016-08-14T22:25:46.257Z,99.99
2016-08-14T22:26:46.258Z,99.99
2016-08-14T22:27:46.290Z,99.99
2016-08-14T22:28:46.242Z,99.99
2016-08-14T22:29:46.250Z,99.99
2016-08-14T22:30:46.257Z,99.99
2016-08-14T22:31:46.241Z,99.99
2016-08-14T22:32:46.249Z,99.99
2016-08-14T22:33:46.260Z,99.99
2016-08-14T22:34:46.250Z,99.99
2016-08-14T22:35:46.273Z,99.99
2016-08-14T22:36:46.276Z,99.99
2016-08-14T22:37:46.272Z,99.99
2016-08-14T22:38:46.277Z,99.99
2016-08-14T22:39:46.264Z,99.99
2016-08-14T22:40:46.290Z,99.99
2016-08-14T22:41:46.312Z,99.99
2016-08-14T22:42:46.268Z,99.99
2016-08-14T22:43:46.271Z,99.99
2016-08-14T22:44:46.276Z,99.99
2016-08-14T22:45:46.301Z,99.99
2016-08-14T22:46:46.279Z,99.99
2016-08-14T22:47:46.306Z,99.99
2016-08-14T22:48:46.265Z,99.99
2016-08-14T22:49:46.272Z,99.99
2016-08-14T22:50:46.292Z,99.99
2016-08-14T22:51:46.327Z,99.99
2016-08-14T22:52:46.300Z,99.99
2016-08-14T22:53:46.293Z,99.99
2016-08-14T22:54:46.292Z,99.99
2016-08-14T22:55:46.294Z,99.99
2016-08-14T22:56:46.343Z,99.99
2016-08-14T22:58:09.377Z,99.99
2016-08-14T22:59:08.447Z,99.99
2016-08-14T23:00:00.870Z,99.99
2016-08-14T23:01:00.772Z,99.99
2016-08-14T23:02:25.799Z,99.99
2016-08-14T23:03:49.142Z,99.99
2016-08-14T23:05:13.149Z,99.99
2016-08-14T23:06:36.018Z,99.99
2016-08-14T23:08:00.170Z,99.99
2016-08-14T23:09:22.629Z,99.99
2016-08-14T23:10:45.826Z,99.99
2016-08-14T23:12:08.455Z,99.99
2016-08-14T23:13:30.031Z,99.99
2016-08-14T23:14:55.048Z,99.99
2016-08-14T23:16:13.244Z,99.99
2016-08-14T23:17:17.491Z,99.99
2016-08-14T23:18:22.019Z,99.99
2016-08-14T23:19:38.924Z,99.99
2016-08-14T23:20:56.654Z,99.99
2016-08-14T23:21:34.357Z,99.99
2016-08-14T23:22:34.721Z,99.99
2016-08-14T23:23:34.347Z,99.99
2016-08-14T23:24:34.354Z,99.99
2016-08-14T23:25:34.399Z,99.99
2016-08-14T23:26:34.357Z,99.99
2016-08-14T23:27:34.350Z,99.99
2016-08-14T23:28:34.371Z,99.99
2016-08-14T23:29:34.350Z,99.99
2016-08-14T23:30:34.348Z,99.99
2016-08-14T23:31:34.353Z,99.99
2016-08-14T23:32:34.362Z,99.99
2016-08-14T23:33:34.369Z,99.99
2016-08-14T23:34:34.368Z,99.99
2016-08-14T23:35:34.374Z,99.99
2016-08-14T23:36:34.373Z,99.99
2016-08-14T23:37:34.368Z,99.99
2016-08-14T23:38:34.358Z,99.99
2016-08-14T23:39:34.374Z,99.99
2016-08-14T23:40:34.384Z,99.99
2016-08-14T23:41:34.371Z,99.99
2016-08-14T23:42:34.399Z,99.99
2016-08-14T23:43:34.366Z,99.99
2016-08-14T23:44:34.375Z,99.99
2016-08-14T23:45:34.401Z,99.99
2016-08-14T23:46:34.368Z,99.99